createdAt,value
2022-12-03T09:12:06.327Z,101195.41
2022-12-03T09:14:34.103Z,101194.78
2022-12-03T09:17:01.860Z,101194.03
2022-12-03T09:19:31.060Z,101197.03
2022-12-03T09:21:58.961Z,101201.31
2022-12-03T09:24:26.733Z,101198.72
2022-12-03T09:26:54.543Z,101188.44
2022-12-03T09:29:23.854Z,101187.34
2022-12-03T09:31:51.618Z,101190.72
2022-12-03T09:34:19.437Z,101191.19
2022-12-03T09:36:47.139Z,101191.91
2022-12-03T09:39:14.905Z,101191.19
2022-12-03T09:41:44.020Z,101187.63
2022-12-03T09:44:17.604Z,101188.44
2022-12-03T09:46:48.778Z,101196.09
2022-12-03T09:49:18.869Z,101196.19
2022-12-03T09:51:47.603Z,101193.78
2022-12-03T09:54:22.773Z,101192.19
2022-12-03T09:56:51.048Z,101192.56
2022-12-03T09:59:19.002Z,101182.22
2022-12-03T10:01:48.578Z,101181.19
2022-12-03T10:04:16.423Z,101178.00
2022-12-03T10:06:45.976Z,101175.88
2022-12-03T10:09:17.553Z,101175.59
2022-12-03T10:11:45.654Z,101170.19
2022-12-03T10:14:16.295Z,101163.91
2022-12-03T10:16:44.418Z,101167.19
2022-12-03T10:19:20.082Z,101164.75
2022-12-03T10:21:48.012Z,101160.38
2022-12-03T10:24:25.440Z,101162.06
2022-12-03T10:26:54.744Z,101157.94
2022-12-03T10:29:29.655Z,101152.25
2022-12-03T10:32:02.555Z,101155.03
2022-12-03T10:34:33.424Z,101153.72
2022-12-03T10:37:14.980Z,101145.22
2022-12-03T10:39:57.990Z,101147.00
2022-12-03T10:42:27.216Z,101143.88
2022-12-03T10:45:19.619Z,101140.53
2022-12-03T10:48:06.915Z,101135.09
2022-12-03T10:50:36.934Z,101133.13
2022-12-03T10:53:05.336Z,101138.44
2022-12-03T10:55:40.570Z,101135.56
2022-12-03T10:58:17.795Z,101126.03
2022-12-03T11:00:45.553Z,101128.00
2022-12-03T11:03:19.524Z,101134.94
2022-12-03T11:05:49.185Z,101127.41
2022-12-03T11:08:19.985Z,101119.88
2022-12-03T11:10:57.559Z,101118.09
2022-12-03T11:13:48.033Z,101113.69
2022-12-03T11:16:36.115Z,101112.13
2022-12-03T11:19:04.530Z,101109.31
2022-12-03T11:21:33.596Z,101110.53
2022-12-03T11:24:15.554Z,101106.34
2022-12-03T11:27:07.941Z,101109.94
2022-12-03T11:29:56.700Z,101100.19
2022-12-03T11:33:00.356Z,101107.31
2022-12-03T11:35:29.783Z,101101.53
2022-12-03T11:38:40.831Z,101090.16
2022-12-03T11:41:09.351Z,101086.16
2022-12-03T11:44:00.459Z,101090.94
2022-12-03T11:46:31.241Z,101091.97
2022-12-03T11:49:00.807Z,101091.34
2022-12-03T11:51:30.598Z,101087.06
2022-12-03T11:54:01.554Z,101086.22
2022-12-03T11:56:31.338Z,101076.06
2022-12-03T11:59:00.583Z,101077.19
2022-12-03T12:01:38.883Z,101076.47
2022-12-03T12:04:08.168Z,101071.06
2022-12-03T12:06:42.476Z,101064.16
2022-12-03T12:09:12.194Z,101062.16
2022-12-03T12:11:41.754Z,101060.19
2022-12-03T12:14:11.320Z,101064.69
2022-12-03T12:16:53.696Z,101054.63
2022-12-03T12:19:39.911Z,101053.53
2022-12-03T12:22:20.871Z,101048.03
2022-12-03T12:24:52.381Z,101051.28
2022-12-03T12:27:22.495Z,101052.13
2022-12-03T12:29:55.876Z,101050.44
2022-12-03T12:32:27.518Z,101053.34
2022-12-03T12:34:58.339Z,101048.22
2022-12-03T12:37:33.453Z,101043.84
2022-12-03T12:40:07.762Z,101040.78
2022-12-03T12:42:36.947Z,101039.13
2022-12-03T12:45:15.238Z,101033.19
2022-12-03T12:47:49.918Z,101042.66
2022-12-03T12:50:19.690Z,101043.63
2022-12-03T12:52:51.831Z,101035.66
2022-12-03T12:55:22.022Z,101034.66
2022-12-03T12:57:49.922Z,101037.25
2022-12-03T13:00:20.732Z,101031.50
2022-12-03T13:02:55.477Z,101037.84
2022-12-03T13:05:24.492Z,101029.56
2022-12-03T13:07:53.871Z,101028.09
2022-12-03T13:10:39.408Z,101031.63
2022-12-03T13:13:19.879Z,101021.91
2022-12-03T13:15:52.858Z,101025.59
2022-12-03T13:18:28.869Z,101023.25
2022-12-03T13:20:56.973Z,101021.78
2022-12-03T13:23:29.993Z,101017.94
2022-12-03T13:26:15.619Z,101013.03
2022-12-03T13:28:50.320Z,101014.34
2022-12-03T13:31:25.047Z,101009.31
2022-12-03T13:33:53.804Z,101010.91
2022-12-03T13:36:23.620Z,101017.97
2022-12-03T13:38:51.343Z,101003.16
2022-12-03T13:41:39.801Z,101011.00
2022-12-03T13:44:19.651Z,101005.38
2022-12-03T13:46:47.868Z,100998.47
2022-12-03T13:49:17.970Z,100995.63
2022-12-03T13:51:47.200Z,101005.31
2022-12-03T13:54:20.136Z,100998.34
2022-12-03T13:56:50.055Z,100992.09
2022-12-03T13:59:22.924Z,100998.34
2022-12-03T14:01:53.941Z,100996.34
2022-12-03T14:04:21.679Z,100985.94
2022-12-03T14:06:49.456Z,100990.78
2022-12-03T14:09:20.546Z,100980.78
2022-12-03T14:12:07.272Z,100979.00
2022-12-03T14:14:35.096Z,100983.47
2022-12-03T14:17:04.426Z,100982.56
2022-12-03T14:19:32.393Z,100980.97
2022-12-03T14:22:00.230Z,100977.44
2022-12-03T14:24:27.961Z,100980.78
2022-12-03T14:26:56.983Z,100980.13
2022-12-03T14:29:24.696Z,100978.28
2022-12-03T14:31:52.503Z,100980.13
2022-12-03T14:34:20.324Z,100975.66
2022-12-03T14:36:48.067Z,100980.53
2022-12-03T14:39:15.781Z,100983.78
2022-12-03T14:42:01.297Z,100978.66
2022-12-03T14:44:30.366Z,100988.16
2022-12-03T14:46:58.137Z,100982.75
2022-12-03T14:49:26.011Z,100989.81
2022-12-03T14:51:53.854Z,100982.00
2022-12-03T14:54:21.901Z,100983.88
2022-12-03T14:56:49.645Z,100983.88
2022-12-03T14:59:17.414Z,100981.28
2022-12-03T15:01:46.626Z,100984.59
2022-12-03T15:04:14.443Z,100977.53
2022-12-03T15:06:42.227Z,100980.88
2022-12-03T15:09:10.108Z,100981.63
2022-12-03T15:11:41.538Z,100991.31
2022-12-03T15:14:13.557Z,100988.88
2022-12-03T15:16:41.492Z,100986.50
2022-12-03T15:19:11.169Z,100992.81
2022-12-03T15:21:38.863Z,100987.69
2022-12-03T15:24:07.170Z,100990.50
2022-12-03T15:26:34.892Z,100993.31
2022-12-03T15:29:02.970Z,100988.91
2022-12-03T15:31:30.802Z,100992.66
2022-12-03T15:33:58.520Z,100989.22
2022-12-03T15:36:27.568Z,100987.84
2022-12-03T15:38:55.319Z,100978.25
2022-12-03T15:41:24.545Z,100978.25
2022-12-03T15:43:53.205Z,100972.38
2022-12-03T15:46:21.360Z,100972.56
2022-12-03T15:48:49.873Z,100967.47
2022-12-03T15:51:17.734Z,100978.06
2022-12-03T15:53:46.877Z,100982.09
2022-12-03T15:56:14.696Z,100984.31
2022-12-03T15:58:42.659Z,100980.41
2022-12-03T16:01:10.575Z,100973.72
2022-12-03T16:03:38.333Z,100971.94
2022-12-03T16:06:06.618Z,100966.91
2022-12-03T16:08:34.329Z,100977.34
2022-12-03T16:11:03.391Z,100973.72
2022-12-03T16:13:32.203Z,100975.41
2022-12-03T16:16:00.781Z,100971.19
2022-12-03T16:18:28.552Z,100976.63
2022-12-03T16:20:56.278Z,100974.09
2022-12-03T16:23:24.051Z,100963.59
2022-12-03T16:25:51.785Z,100964.22
2022-12-03T16:28:21.054Z,100972.88
2022-12-03T16:30:48.803Z,100966.66
2022-12-03T16:33:16.558Z,100969.34
2022-12-03T16:35:44.315Z,100963.38
2022-12-03T16:38:12.055Z,100963.84
2022-12-03T16:40:39.736Z,100956.22
2022-12-03T16:43:09.560Z,100954.34
2022-12-03T16:46:08.031Z,100960.59
2022-12-03T16:48:35.755Z,100961.13
2022-12-03T16:51:03.500Z,100958.34
2022-12-03T16:53:31.210Z,100949.78
2022-12-03T16:56:01.191Z,100951.06
2022-12-03T16:58:29.546Z,100954.44
2022-12-03T17:00:58.787Z,100958.22
2022-12-03T17:03:32.052Z,100964.59
2022-12-03T17:06:01.548Z,100963.56
2022-12-03T17:08:29.454Z,100956.69
2022-12-03T17:10:57.666Z,100963.75
2022-12-03T17:13:25.668Z,100962.16
2022-12-03T17:15:53.723Z,100957.69
2022-12-03T17:18:22.980Z,100958.53
2022-12-03T17:20:50.755Z,100959.38
2022-12-03T17:23:18.731Z,100960.97
2022-12-03T17:25:46.546Z,100951.25
2022-12-03T17:28:14.312Z,100959.06
2022-12-03T17:30:42.059Z,100952.09
2022-12-03T17:33:09.814Z,100959.06
2022-12-03T17:35:38.979Z,100954.06
2022-12-03T17:38:06.688Z,100959.06
2022-12-03T17:40:34.467Z,100959.19
2022-12-03T17:43:02.254Z,100956.69
2022-12-03T17:45:29.942Z,100952.94
2022-12-03T17:47:57.753Z,100958.81
2022-12-03T17:50:25.824Z,100959.91
2022-12-03T17:52:54.990Z,100950.41
2022-12-03T17:55:33.564Z,100947.81
2022-12-03T17:58:04.022Z,100949.56
2022-12-03T18:00:31.956Z,100939.91
2022-12-03T18:02:59.752Z,100945.94
2022-12-03T18:05:27.588Z,100945.19
2022-12-03T18:07:56.649Z,100946.88
2022-12-03T18:10:24.433Z,100949.50
2022-12-03T18:12:53.977Z,100942.41
2022-12-03T18:15:24.767Z,100942.41
2022-12-03T18:17:52.820Z,100937.19
2022-12-03T18:20:20.495Z,100945.19
2022-12-03T18:22:48.290Z,100933.84
2022-12-03T18:25:18.043Z,100943.34
2022-12-03T18:27:46.794Z,100933.75
2022-12-03T18:30:15.069Z,100941.88
2022-12-03T18:32:42.800Z,100936.34
2022-12-03T18:35:10.863Z,100933.75
2022-12-03T18:37:39.552Z,100938.13
2022-12-03T18:40:13.014Z,100932.66
2022-12-03T18:42:42.375Z,100933.19
2022-12-03T18:45:13.091Z,100933.19
2022-12-03T18:47:41.009Z,100934.84
2022-12-03T18:50:14.807Z,100935.78
2022-12-03T18:52:42.534Z,100939.22
2022-12-03T18:55:17.610Z,100931.50
2022-12-03T18:57:46.964Z,100933.81
2022-12-03T19:00:15.752Z,100927.75
2022-12-03T19:03:02.471Z,100920.88
2022-12-03T19:05:31.331Z,100919.22
2022-12-03T19:07:59.334Z,100920.22
2022-12-03T19:10:27.818Z,100919.22
2022-12-03T19:12:57.085Z,100919.09
2022-12-03T19:15:24.935Z,100922.94
2022-12-03T19:17:52.674Z,100912.31
2022-12-03T19:20:20.568Z,100923.59
2022-12-03T19:22:48.324Z,100925.06
2022-12-03T19:25:16.254Z,100927.75
2022-12-03T19:27:44.573Z,100922.25
2022-12-03T19:30:14.375Z,100919.00
2022-12-03T19:32:42.069Z,100924.97
2022-12-03T19:35:11.347Z,100925.06
2022-12-03T19:37:39.240Z,100919.94
2022-12-03T19:40:10.204Z,100926.91
2022-12-03T19:42:37.960Z,100931.31
2022-12-03T19:45:06.575Z,100934.09
2022-12-03T19:47:35.818Z,100927.31
2022-12-03T19:50:03.642Z,100932.44
2022-12-03T19:52:31.650Z,100926.38
2022-12-03T19:54:59.362Z,100928.81
2022-12-03T19:57:27.068Z,100932.78
2022-12-03T19:59:55.030Z,100929.16
2022-12-03T20:02:23.147Z,100926.41
2022-12-03T20:04:52.454Z,100931.47
2022-12-03T20:07:20.274Z,100928.84
2022-12-03T20:09:50.767Z,100928.22
2022-12-03T20:12:18.607Z,100920.41
2022-12-03T20:14:46.622Z,100924.78
2022-12-03T20:17:14.420Z,100928.22
2022-12-03T20:19:42.148Z,100928.09
2022-12-03T20:22:11.264Z,100919.34
2022-12-03T20:24:39.008Z,100921.88
2022-12-03T20:27:06.702Z,100932.38
2022-12-03T20:29:34.452Z,100914.88
2022-12-03T20:32:03.030Z,100917.56
2022-12-03T20:34:30.872Z,100919.34
2022-12-03T20:36:58.591Z,100925.72
2022-12-03T20:39:27.677Z,100922.16
2022-12-03T20:41:55.407Z,100924.13
2022-12-03T20:44:23.126Z,100926.81
2022-12-03T20:46:50.872Z,100918.16
2022-12-03T20:49:18.688Z,100923.19
2022-12-03T20:51:47.040Z,100919.66
2022-12-03T20:54:14.800Z,100917.88
2022-12-03T20:56:43.928Z,100913.38
2022-12-03T20:59:14.066Z,100909.97
2022-12-03T21:01:42.507Z,100918.41
2022-12-03T21:04:13.317Z,100910.50
2022-12-03T21:06:42.296Z,100910.41
2022-12-03T21:09:11.736Z,100908.16
2022-12-03T21:11:41.597Z,100907.25
2022-12-03T21:14:11.877Z,100903.78
2022-12-03T21:19:29.960Z,100906.31
2022-12-03T21:21:57.732Z,100912.34
2022-12-03T21:24:25.804Z,100913.28
2022-12-03T21:26:53.548Z,100905.47
2022-12-03T21:29:22.902Z,100901.59
2022-12-03T21:31:51.109Z,100897.13
2022-12-03T21:34:18.900Z,100897.13
2022-12-03T21:36:46.905Z,100901.44
2022-12-03T21:39:14.836Z,100895.00
2022-12-03T21:42:34.289Z,100902.91
2022-12-03T21:44:31.982Z,100894.34
2022-12-03T21:47:11.699Z,100899.78
2022-12-03T21:49:42.198Z,100905.72
2022-12-03T21:52:10.068Z,100902.06
2022-12-03T21:54:37.943Z,100906.34
2022-12-03T21:57:05.729Z,100903.66
2022-12-03T21:59:34.799Z,100910.47
2022-12-03T22:02:02.683Z,100910.56
2022-12-03T22:04:30.565Z,100897.22
2022-12-03T22:06:58.409Z,100907.53
2022-12-03T22:09:26.919Z,100900.56
2022-12-03T22:11:57.001Z,100907.63
2022-12-03T22:14:24.785Z,100905.03
2022-12-03T22:16:54.095Z,100891.25
2022-12-03T22:19:23.383Z,100892.22
2022-12-03T22:21:51.231Z,100891.56
2022-12-03T22:24:19.620Z,100889.97
2022-12-03T22:26:48.070Z,100885.72
2022-12-03T22:29:16.118Z,100888.75
2022-12-03T22:31:43.830Z,100886.34
2022-12-03T22:34:13.060Z,100885.31
2022-12-03T22:36:40.781Z,100886.03
2022-12-03T22:39:08.762Z,100875.91
2022-12-03T22:41:36.499Z,100879.34
2022-12-03T22:44:04.254Z,100886.16
2022-12-03T22:46:32.132Z,100887.78
2022-12-03T22:49:06.403Z,100879.78
2022-12-03T22:51:36.603Z,100876.06
2022-12-03T22:54:05.582Z,100880.22
2022-12-03T22:56:33.917Z,100867.84
2022-12-03T22:59:01.711Z,100873.25
2022-12-03T23:01:31.652Z,100871.47
2022-12-03T23:04:00.114Z,100870.84
2022-12-03T23:06:28.733Z,100864.66
2022-12-03T23:08:59.383Z,100869.59
2022-12-03T23:11:27.931Z,100864.50
2022-12-03T23:13:56.006Z,100869.88
2022-12-03T23:16:26.143Z,100861.88
2022-12-03T23:18:54.355Z,100869.19
2022-12-03T23:21:29.272Z,100865.91
2022-12-03T23:23:59.467Z,100865.72
2022-12-03T23:26:28.486Z,100864.16
2022-12-03T23:28:56.552Z,100858.31
2022-12-03T23:31:27.195Z,100862.47
2022-12-03T23:33:56.558Z,100857.47
2022-12-03T23:36:25.956Z,100856.41
2022-12-03T23:38:53.843Z,100852.97
2022-12-03T23:41:24.218Z,100855.56
2022-12-03T23:43:52.429Z,100852.03
2022-12-03T23:46:22.240Z,100848.59
2022-12-03T23:48:51.285Z,100856.41
2022-12-03T23:51:21.363Z,100853.09
2022-12-03T23:53:49.199Z,100844.44
2022-12-03T23:56:18.670Z,100843.47
2022-12-03T23:58:48.355Z,100850.25
